| time (UTC) | temp F | wind direction | speed knots | gust knots | rain 1hr in | rain 24hr in | rain mn in | humidity % | barometer mb |
| 20260503190450 | 60 | 316 | 7.0 | 14.8 | 0.00 | 0.00 | 0.00 | 33 | 1009.5 |
| 20260503185953 | 60 | 272 | 7.0 | 13.0 | 0.00 | 0.00 | 0.00 | 34 | 1009.9 |
| 20260503185450 | 60 | 280 | 8.7 | 14.8 | 0.00 | 0.00 | 0.00 | 34 | 1009.9 |
| 20260503184953 | 60 | 248 | 9.6 | 18.2 | 0.00 | 0.00 | 0.00 | 34 | 1009.9 |
| 20260503184450 | 59 | 342 | 5.2 | 15.6 | 0.00 | 0.00 | 0.00 | 35 | 1010.3 |
| 20260503183950 | 59 | 322 | 9.6 | 14.8 | 0.00 | 0.00 | 0.00 | 34 | 1010.3 |
| 20260503183450 | 59 | 229 | 8.7 | 18.2 | 0.00 | 0.00 | 0.00 | 35 | 1010.3 |
| 20260503182950 | 59 | 248 | 4.3 | 13.9 | 0.00 | 0.00 | 0.00 | 35 | 1010.3 |
| 20260503182450 | 58 | 297 | 5.2 | 14.8 | 0.00 | 0.00 | 0.00 | 36 | 1010.3 |
| 20260503181950 | 58 | 243 | 11.3 | 19.1 | 0.00 | 0.00 | 0.00 | 35 | 1010.3 |
| 20260503181450 | 58 | 306 | 8.7 | 8.7 | 0.00 | 0.00 | 0.00 | 36 | 1010.3 |
| 20260503180953 | 58 | 154 | 2.6 | 15.6 | 0.00 | 0.00 | 0.00 | 38 | 1010.3 |
| 20260503180450 | 58 | 227 | 2.6 | 12.2 | 0.00 | 0.00 | 0.00 | 38 | 1010.3 |
| 20260503175950 | 57 | 232 | 1.7 | 14.8 | 0.00 | 0.00 | 0.00 | 36 | 1010.3 |
| 20260503175450 | 57 | 315 | 5.2 | 9.6 | 0.00 | 0.00 | 0.00 | 41 | 1010.3 |
| 20260503174950 | 56 | 209 | 1.7 | 14.8 | 0.00 | 0.00 | 0.00 | 41 | 1010.3 |
| 20260503174450 | 56 | 355 | 8.7 | 8.7 | 0.00 | 0.00 | 0.00 | 40 | 1010.3 |
| 20260503173950 | 56 | 305 | 7.8 | 10.4 | 0.00 | 0.00 | 0.00 | 40 | 1010.3 |
| 20260503173450 | 56 | 259 | 4.3 | 17.4 | 0.00 | 0.00 | 0.00 | 40 | 1010.3 |
| 20260503172950 | 56 | 278 | 13.0 | 18.2 | 0.00 | 0.00 | 0.00 | 37 | 1010.4 |
| 20260503172453 | 56 | 269 | 7.0 | 13.0 | 0.00 | 0.00 | 0.00 | 38 | 1010.4 |
| 20260503171950 | 56 | 313 | 8.7 | 9.6 | 0.00 | 0.00 | 0.00 | 39 | 1010.4 |
| 20260503171450 | 56 | 209 | 2.6 | 13.0 | 0.00 | 0.00 | 0.00 | 39 | 1010.5 |
| 20260503170950 | 56 | 253 | 9.6 | 19.1 | 0.00 | 0.00 | 0.00 | 38 | 1010.5 |
| 20260503170450 | 56 | 339 | 7.0 | 19.1 | 0.00 | 0.00 | 0.00 | 37 | 1010.5 |
| 20260503150950 | 53 | 231 | 5.2 | 10.4 | 0.00 | 0.00 | 0.00 | 44 | 1010.9 |
| 20260503150450 | 53 | 261 | 3.5 | 13.0 | 0.00 | 0.00 | 0.00 | 43 | 1010.9 |
| 20260503130950 | 49 | 274 | 4.3 | 13.9 | 0.00 | 0.00 | 0.00 | 52 | 1010.8 |
| 20260503130450 | 49 | 298 | 6.1 | 13.0 | 0.00 | 0.00 | 0.00 | 53 | 1010.8 |
| 20260503110452 | 47 | 333 | 5.2 | 11.3 | 0.00 | 0.00 | 0.00 | 56 | 1010.3 |
| 20260503090449 | 47 | 275 | 3.5 | 4.3 | 0.00 | 0.00 | 0.00 | 55 | 1008.7 |
| 20260503081449 | 48 | 332 | 1.7 | 5.2 | 0.00 | 0.00 | 0.00 | 54 | 1008.3 |
| 20260503080949 | 48 | 322 | 2.6 | 3.5 | 0.00 | 0.00 | 0.00 | 54 | 1008.3 |
| 20260503080449 | 48 | 315 | 2.6 | 4.3 | 0.00 | 0.00 | 0.00 | 54 | 1008.3 |
| 20260503072452 | 49 | 302 | 2.6 | 5.2 | 0.00 | 0.00 | 0.00 | 52 | 1008.3 |
| 20260503071949 | 49 | 325 | 3.5 | 5.2 | 0.00 | 0.00 | 0.00 | 52 | 1008.3 |
| 20260503071449 | 49 | 298 | 3.5 | 6.1 | 0.00 | 0.00 | 0.00 | 52 | 1008.3 |
| 20260503070949 | 49 | 314 | 3.5 | 7.0 | 0.00 | 0.00 | 0.00 | 52 | 1008.3 |
| 20260503070449 | 49 | 296 | 2.6 | 6.1 | 0.00 | 0.00 | 0.00 | 51 | 1008.3 |
| 20260503054949 | 51 | 233 | 1.7 | 6.1 | 0.00 | 0.00 | 0.00 | 50 | 1008.5 |
| 20260503054449 | 51 | 332 | 3.5 | 5.2 | 0.00 | 0.00 | 0.00 | 49 | 1008.7 |
| 20260503053949 | 51 | 277 | 1.7 | 3.5 | 0.00 | 0.00 | 0.00 | 50 | 1008.7 |
| 20260503053449 | 51 | 292 | 2.6 | 4.3 | 0.00 | 0.00 | 0.00 | 49 | 1008.7 |
| 20260503052949 | 51 | 319 | 4.3 | 5.2 | 0.00 | 0.00 | 0.00 | 49 | 1008.7 |
| 20260503052451 | 51 | 313 | 1.7 | 2.6 | 0.00 | 0.00 | 0.00 | 49 | 1008.7 |
| 20260503051949 | 51 | 287 | 0.9 | 3.5 | 0.00 | 0.00 | 0.00 | 49 | 1008.7 |
| 20260503051449 | 52 | 296 | 0.9 | 3.5 | 0.00 | 0.00 | 0.00 | 49 | 1008.8 |
| 20260503050948 | 52 | 234 | 2.6 | 5.2 | 0.00 | 0.00 | 0.00 | 49 | 1008.8 |
| 20260503050449 | 52 | 274 | 0.9 | 4.3 | 0.00 | 0.00 | 0.00 | 48 | 1008.8 |
| 20260503045948 | 52 | 323 | 4.3 | 7.0 | 0.00 | 0.00 | 0.00 | 48 | 1008.9 |
| 20260503045448 | 52 | 323 | 3.5 | 6.1 | 0.00 | 0.00 | 0.00 | 48 | 1008.9 |
| 20260503044949 | 52 | 279 | 2.6 | 5.2 | 0.00 | 0.00 | 0.00 | 48 | 1008.9 |
| 20260503044451 | 52 | 259 | 3.5 | 6.1 | 0.00 | 0.00 | 0.00 | 48 | 1008.9 |
| 20260503043949 | 52 | 246 | 2.6 | 4.3 | 0.00 | 0.00 | 0.00 | 47 | 1008.9 |
| 20260503043448 | 52 | 271 | 0.9 | 3.5 | 0.00 | 0.00 | 0.00 | 47 | 1008.9 |
| 20260503042948 | 52 | 306 | 2.6 | 5.2 | 0.00 | 0.00 | 0.00 | 48 | 1008.8 |
| 20260503042451 | 52 | 309 | 2.6 | 6.1 | 0.00 | 0.00 | 0.00 | 48 | 1008.8 |
| 20260503041948 | 52 | 301 | 3.5 | 6.1 | 0.00 | 0.00 | 0.00 | 48 | 1008.8 |
| 20260503041451 | 52 | 272 | 1.7 | 6.1 | 0.00 | 0.00 | 0.00 | 47 | 1009.0 |
| 20260503040951 | 52 | 329 | 2.6 | 7.0 | 0.00 | 0.00 | 0.00 | 48 | 1009.0 |
| 20260503040448 | 53 | 294 | 4.3 | 6.1 | 0.00 | 0.00 | 0.00 | 48 | 1009.0 |
| 20260503035948 | 53 | 305 | 2.6 | 6.1 | 0.00 | 0.00 | 0.00 | 48 | 1009.1 |
| 20260503035451 | 53 | 296 | 2.6 | 4.3 | 0.00 | 0.00 | 0.00 | 47 | 1009.1 |
| 20260503034948 | 53 | 322 | 1.7 | 6.1 | 0.00 | 0.00 | 0.00 | 47 | 1009.1 |
| 20260503034448 | 53 | 311 | 3.5 | 7.0 | 0.00 | 0.00 | 0.00 | 47 | 1008.9 |
| 20260503033951 | 53 | 310 | 2.6 | 5.2 | 0.00 | 0.00 | 0.00 | 47 | 1008.9 |
| 20260503033448 | 53 | 309 | 4.3 | 6.1 | 0.00 | 0.00 | 0.00 | 47 | 1008.9 |
| 20260503032948 | 53 | 264 | 2.6 | 6.1 | 0.00 | 0.00 | 0.00 | 47 | 1008.9 |
| 20260503032448 | 53 | 278 | 2.6 | 6.1 | 0.00 | 0.00 | 0.00 | 46 | 1008.9 |
| 20260503031948 | 54 | 286 | 2.6 | 4.3 | 0.00 | 0.00 | 0.00 | 46 | 1008.9 |
| 20260503031451 | 54 | 323 | 5.2 | 7.8 | 0.00 | 0.00 | 0.00 | 46 | 1008.9 |
| 20260503030951 | 54 | 313 | 4.3 | 6.1 | 0.00 | 0.00 | 0.00 | 45 | 1008.9 |
| 20260503030448 | 54 | 318 | 3.5 | 5.2 | 0.00 | 0.00 | 0.00 | 45 | 1008.9 |
| 20260503025948 | 54 | 270 | 3.5 | 6.1 | 0.00 | 0.00 | 0.00 | 46 | 1008.9 |
| 20260503025448 | 54 | 309 | 2.6 | 5.2 | 0.00 | 0.00 | 0.00 | 45 | 1008.9 |
| 20260503024948 | 54 | 293 | 4.3 | 7.0 | 0.00 | 0.00 | 0.00 | 44 | 1008.9 |
| 20260503024448 | 54 | 304 | 2.6 | 7.0 | 0.00 | 0.00 | 0.00 | 44 | 1009.1 |
| 20260503023948 | 55 | 342 | 5.2 | 7.8 | 0.00 | 0.00 | 0.00 | 44 | 1009.1 |
| 20260503023448 | 55 | 288 | 5.2 | 7.8 | 0.00 | 0.00 | 0.00 | 44 | 1009.1 |
| 20260503022948 | 55 | 263 | 4.3 | 6.1 | 0.00 | 0.00 | 0.00 | 44 | 1009.2 |
| 20260503022451 | 55 | 296 | 2.6 | 3.5 | 0.00 | 0.00 | 0.00 | 44 | 1009.2 |
| 20260503021948 | 55 | 345 | 3.5 | 5.2 | 0.00 | 0.00 | 0.00 | 44 | 1009.2 |
| 20260503021448 | 55 | 281 | 1.7 | 4.3 | 0.00 | 0.00 | 0.00 | 45 | 1009.0 |
| 20260503020948 | 55 | 311 | 3.5 | 4.3 | 0.00 | 0.00 | 0.00 | 45 | 1009.0 |
| 20260503020448 | 55 | 302 | 0.9 | 4.3 | 0.00 | 0.00 | 0.00 | 44 | 1009.0 |
| 20260503015948 | 55 | 252 | 2.6 | 5.2 | 0.00 | 0.00 | 0.00 | 44 | 1008.8 |
| 20260503015448 | 55 | 318 | 6.1 | 6.1 | 0.00 | 0.00 | 0.00 | 45 | 1008.8 |
| 20260503014948 | 55 | 302 | 3.5 | 6.1 | 0.00 | 0.00 | 0.00 | 46 | 1008.8 |
| 20260503014448 | 55 | 305 | 2.6 | 7.0 | 0.00 | 0.00 | 0.00 | 45 | 1008.8 |
| 20260503013951 | 56 | 317 | 4.3 | 5.2 | 0.00 | 0.00 | 0.00 | 44 | 1008.8 |
| 20260503013448 | 56 | 309 | 4.3 | 6.1 | 0.00 | 0.00 | 0.00 | 44 | 1008.8 |
| 20260503012948 | 56 | 298 | 5.2 | 5.2 | 0.00 | 0.00 | 0.00 | 45 | 1009.0 |
| 20260503012448 | 56 | 306 | 2.6 | 7.0 | 0.00 | 0.00 | 0.00 | 43 | 1009.0 |
| 20260503011948 | 56 | 289 | 2.6 | 6.1 | 0.00 | 0.00 | 0.00 | 44 | 1009.0 |
| 20260503011448 | 56 | 250 | 3.5 | 6.1 | 0.00 | 0.00 | 0.00 | 44 | 1008.8 |
| 20260503010948 | 57 | 254 | 6.1 | 7.0 | 0.00 | 0.00 | 0.00 | 43 | 1008.8 |
| 20260503010448 | 57 | 290 | 0.9 | 6.1 | 0.00 | 0.00 | 0.00 | 42 | 1008.8 |
| 20260503005948 | 57 | 261 | 3.5 | 6.1 | 0.00 | 0.00 | 0.00 | 42 | 1008.6 |
| 20260503005448 | 57 | 277 | 1.7 | 3.5 | 0.00 | 0.00 | 0.00 | 42 | 1008.6 |
| 20260503004948 | 57 | 298 | 1.7 | 4.3 | 0.00 | 0.00 | 0.00 | 42 | 1008.6 |
| 20260503004451 | 57 | 268 | 2.6 | 6.1 | 0.00 | 0.00 | 0.00 | 41 | 1008.5 |
| 20260503003948 | 57 | 330 | 1.7 | 6.1 | 0.00 | 0.00 | 0.00 | 41 | 1008.5 |
| 20260503003448 | 57 | 306 | 0.9 | 3.5 | 0.00 | 0.00 | 0.00 | 41 | 1008.5 |
| 20260503002948 | 58 | 304 | 1.7 | 6.1 | 0.00 | 0.00 | 0.00 | 41 | 1008.3 |
| 20260503002448 | 58 | 321 | 3.5 | 5.2 | 0.00 | 0.00 | 0.00 | 40 | 1008.3 |
| 20260503001948 | 58 | 296 | 3.5 | 7.0 | 0.00 | 0.00 | 0.00 | 40 | 1008.3 |
| 20260503001448 | 58 | 252 | 2.6 | 5.2 | 0.00 | 0.00 | 0.00 | 40 | 1008.3 |
| 20260503000948 | 58 | 309 | 3.5 | 4.3 | 0.00 | 0.00 | 0.00 | 40 | 1008.3 |
| 20260503000448 | 58 | 319 | 3.5 | 5.2 | 0.00 | 0.00 | 0.00 | 39 | 1008.3 |
| 20260502235948 | 58 | 308 | 2.6 | 6.1 | 0.00 | 0.00 | 0.00 | 40 | 1008.3 |
| 20260502235448 | 59 | 301 | 4.3 | 6.1 | 0.00 | 0.00 | 0.00 | 39 | 1008.3 |
| 20260502234948 | 59 | 273 | 6.1 | 7.8 | 0.00 | 0.00 | 0.00 | 39 | 1008.3 |
| 20260502234448 | 59 | 319 | 1.7 | 4.3 | 0.00 | 0.00 | 0.00 | 39 | 1008.2 |
| 20260502233948 | 59 | 283 | 2.6 | 5.2 | 0.00 | 0.00 | 0.00 | 39 | 1008.2 |
| 20260502233448 | 59 | 287 | 0.9 | 4.3 | 0.00 | 0.00 | 0.00 | 39 | 1008.2 |
| 20260502232951 | 59 | 299 | 0.9 | 2.6 | 0.00 | 0.00 | 0.00 | 40 | 1008.3 |
| 20260502232448 | 59 | 313 | 1.7 | 5.2 | 0.00 | 0.00 | 0.00 | 38 | 1008.3 |
| 20260502231948 | 59 | 272 | 0.0 | 5.2 | 0.00 | 0.00 | 0.00 | 37 | 1008.3 |
| 20260502231451 | 60 | 278 | 2.6 | 7.8 | 0.00 | 0.00 | 0.00 | 37 | 1008.2 |
| 20260502230948 | 60 | 269 | 4.3 | 6.1 | 0.00 | 0.00 | 0.00 | 37 | 1008.2 |
| 20260502230448 | 60 | 265 | 1.7 | 7.0 | 0.00 | 0.00 | 0.00 | 38 | 1008.2 |
| 20260502225948 | 60 | 287 | 3.5 | 5.2 | 0.00 | 0.00 | 0.00 | 39 | 1008.1 |
| 20260502225448 | 60 | 260 | 1.7 | 4.3 | 0.00 | 0.00 | 0.00 | 38 | 1008.1 |
| 20260502224948 | 60 | 238 | 0.9 | 7.0 | 0.00 | 0.00 | 0.00 | 40 | 1008.1 |
| 20260502224448 | 60 | 313 | 5.2 | 7.0 | 0.00 | 0.00 | 0.00 | 38 | 1008.0 |
| 20260502223948 | 60 | 265 | 2.6 | 7.0 | 0.00 | 0.00 | 0.00 | 38 | 1008.0 |
| 20260502223448 | 60 | 266 | 3.5 | 8.7 | 0.00 | 0.00 | 0.00 | 38 | 1008.0 |
| 20260502222948 | 60 | 322 | 4.3 | 7.8 | 0.00 | 0.00 | 0.00 | 38 | 1007.8 |
| 20260502222448 | 60 | 323 | 7.8 | 8.7 | 0.00 | 0.00 | 0.00 | 37 | 1007.8 |
| 20260502221948 | 60 | 275 | 4.3 | 6.1 | 0.00 | 0.00 | 0.00 | 39 | 1007.8 |
| 20260502221448 | 60 | 317 | 1.7 | 7.8 | 0.00 | 0.00 | 0.00 | 38 | 1007.9 |
| 20260502220948 | 61 | 340 | 6.1 | 10.4 | 0.00 | 0.00 | 0.00 | 37 | 1007.9 |
| 20260502220450 | 61 | 299 | 7.0 | 10.4 | 0.00 | 0.00 | 0.00 | 37 | 1007.9 |
| 20260502215948 | 61 | 283 | 4.3 | 9.6 | 0.00 | 0.00 | 0.00 | 36 | 1008.1 |
| 20260502215448 | 61 | 0 | 1.7 | 6.1 | 0.00 | 0.00 | 0.00 | 39 | 1008.1 |
| 20260502214948 | 61 | 336 | 2.6 | 8.7 | 0.00 | 0.00 | 0.00 | 38 | 1008.1 |
| 20260502214451 | 61 | 287 | 4.3 | 8.7 | 0.00 | 0.00 | 0.00 | 39 | 1007.9 |
| 20260502213951 | 61 | 327 | 1.7 | 8.7 | 0.00 | 0.00 | 0.00 | 39 | 1007.9 |
| 20260502213448 | 61 | 319 | 1.7 | 5.2 | 0.00 | 0.00 | 0.00 | 39 | 1007.9 |
| 20260502212948 | 61 | 300 | 3.5 | 4.3 | 0.00 | 0.00 | 0.00 | 40 | 1007.7 |
| 20260502212448 | 61 | 329 | 4.3 | 7.0 | 0.00 | 0.00 | 0.00 | 40 | 1007.7 |
| 20260502211948 | 61 | 324 | 3.5 | 7.8 | 0.00 | 0.00 | 0.00 | 40 | 1007.7 |
| 20260502211448 | 61 | 5 | 1.7 | 8.7 | 0.00 | 0.00 | 0.00 | 40 | 1007.7 |
| 20260502210950 | 61 | 9 | 5.2 | 10.4 | 0.00 | 0.00 | 0.00 | 40 | 1007.7 |
| 20260502210448 | 61 | 307 | 6.1 | 7.8 | 0.00 | 0.00 | 0.00 | 41 | 1007.7 |
| 20260502205948 | 61 | 42 | 7.0 | 10.4 | 0.00 | 0.00 | 0.00 | 40 | 1007.5 |
| 20260502205451 | 61 | 271 | 2.6 | 7.8 | 0.00 | 0.00 | 0.00 | 39 | 1007.5 |
| 20260502204948 | 61 | 267 | 0.9 | 7.0 | 0.00 | 0.00 | 0.00 | 39 | 1007.5 |
| 20260502204447 | 61 | 318 | 6.1 | 10.4 | 0.00 | 0.00 | 0.00 | 38 | 1007.7 |
| 20260502203948 | 61 | 5 | 3.5 | 11.3 | 0.00 | 0.00 | 0.00 | 38 | 1007.7 |
| 20260502203450 | 61 | 343 | 9.6 | 9.6 | 0.00 | 0.00 | 0.00 | 38 | 1007.7 |
| 20260502202948 | 61 | 321 | 3.5 | 7.8 | 0.00 | 0.00 | 0.00 | 38 | 1007.7 |
| 20260502202450 | 61 | 298 | 7.0 | 11.3 | 0.00 | 0.00 | 0.00 | 38 | 1007.7 |
| 20260502201950 | 61 | 281 | 4.3 | 7.0 | 0.00 | 0.00 | 0.00 | 38 | 1007.7 |
| 20260502201448 | 62 | 319 | 2.6 | 7.0 | 0.00 | 0.00 | 0.00 | 37 | 1007.8 |
| 20260502200947 | 62 | 275 | 5.2 | 8.7 | 0.00 | 0.00 | 0.00 | 38 | 1007.8 |
| 20260502200447 | 62 | 298 | 4.3 | 11.3 | 0.00 | 0.00 | 0.00 | 38 | 1007.8 |
| 20260502195950 | 62 | 315 | 4.3 | 9.6 | 0.00 | 0.00 | 0.00 | 37 | 1008.2 |
| 20260502195447 | 62 | 309 | 8.7 | 10.4 | 0.00 | 0.00 | 0.00 | 36 | 1008.2 |
| 20260502194947 | 62 | 323 | 4.3 | 9.6 | 0.00 | 0.00 | 0.00 | 37 | 1008.2 |
| 20260502194447 | 62 | 284 | 3.5 | 7.0 | 0.00 | 0.00 | 0.00 | 35 | 1008.3 |
| 20260502193947 | 62 | 349 | 5.2 | 7.8 | 0.00 | 0.00 | 0.00 | 35 | 1008.3 |
| 20260502193447 | 62 | 313 | 4.3 | 8.7 | 0.00 | 0.00 | 0.00 | 37 | 1008.3 |
| 20260502192947 | 62 | 340 | 7.8 | 11.3 | 0.00 | 0.00 | 0.00 | 36 | 1008.7 |
| 20260502192447 | 62 | 309 | 2.6 | 12.2 | 0.00 | 0.00 | 0.00 | 38 | 1008.7 |
| 20260502191947 | 62 | 290 | 6.1 | 11.3 | 0.00 | 0.00 | 0.00 | 36 | 1008.7 |
| 20260502191447 | 63 | 288 | 3.5 | 11.3 | 0.00 | 0.00 | 0.00 | 37 | 1008.8 |
| 20260502190947 | 63 | 299 | 0.9 | 8.7 | 0.00 | 0.00 | 0.00 | 38 | 1008.8 |